createdAt,value
2016-12-01T00:00:02.668Z,4.37
2016-12-01T00:01:02.960Z,4.33
2016-12-01T00:02:02.637Z,4.34
2016-12-01T00:03:02.616Z,4.34
2016-12-01T00:04:02.906Z,4.39
2016-12-01T00:05:02.894Z,4.32
2016-12-01T00:06:02.561Z,4.39
2016-12-01T00:07:02.850Z,4.36
2016-12-01T00:08:02.510Z,4.36
2016-12-01T00:09:02.808Z,4.36
2016-12-01T00:10:02.473Z,4.42
2016-12-01T00:11:02.453Z,4.36
2016-12-01T00:12:02.448Z,4.39
2016-12-01T00:13:02.413Z,4.4
2016-12-01T00:14:02.442Z,4.34
2016-12-01T00:15:02.372Z,4.36
2016-12-01T00:16:02.355Z,4.37
2016-12-01T00:17:02.337Z,4.4
2016-12-01T00:18:02.310Z,4.36
2016-12-01T00:19:02.294Z,4.34
2016-12-01T00:20:02.269Z,4.36
2016-12-01T00:21:02.256Z,4.37
2016-12-01T00:22:02.233Z,4.39
2016-12-01T00:23:02.239Z,4.39
2016-12-01T00:24:02.192Z,4.32
2016-12-01T00:25:02.173Z,4.43
2016-12-01T00:26:02.154Z,4.36
2016-12-01T00:27:02.131Z,4.42
2016-12-01T00:28:02.110Z,4.34
2016-12-01T00:29:02.090Z,4.37
2016-12-01T00:30:02.409Z,4.46
2016-12-01T00:31:02.371Z,4.39
2016-12-01T00:32:02.036Z,4.37
2016-12-01T00:33:02.039Z,4.4
2016-12-01T00:34:02.304Z,4.36
2016-12-01T00:35:01.975Z,4.39
2016-12-01T00:36:02.268Z,4.44
2016-12-01T00:37:01.941Z,4.43
2016-12-01T00:38:01.911Z,4.42
2016-12-01T00:39:01.889Z,4.44
2016-12-01T00:40:01.874Z,4.42
2016-12-01T00:41:02.172Z,4.44
2016-12-01T00:42:01.832Z,4.46
2016-12-01T00:43:01.814Z,4.46
2016-12-01T00:44:01.797Z,4.44
2016-12-01T00:45:01.772Z,4.42
2016-12-01T00:46:01.780Z,4.44
2016-12-01T00:47:01.741Z,4.39
2016-12-01T00:48:01.714Z,4.4
2016-12-01T00:49:01.695Z,4.44
2016-12-01T00:50:01.676Z,4.42
2016-12-01T00:51:01.652Z,4.42
2016-12-01T00:52:01.634Z,4.42
2016-12-01T00:53:01.618Z,4.42
2016-12-01T00:54:01.594Z,4.39
2016-12-01T00:55:01.573Z,4.44
2016-12-01T00:56:01.554Z,4.4
2016-12-01T00:57:01.536Z,4.5
2016-12-01T00:58:01.830Z,4.4
2016-12-01T00:59:01.499Z,4.42
2016-12-01T01:00:01.477Z,4.43
2016-12-01T01:01:01.459Z,4.37
2016-12-01T01:02:01.435Z,4.47
2016-12-01T01:03:01.732Z,4.47
2016-12-01T01:04:01.398Z,4.44
2016-12-01T01:05:01.381Z,4.43
2016-12-01T01:06:01.374Z,4.44
2016-12-01T01:07:01.651Z,4.55
2016-12-01T01:08:01.317Z,4.44
2016-12-01T01:09:01.302Z,4.5
2016-12-01T01:10:01.276Z,4.44
2016-12-01T01:11:01.258Z,4.4
2016-12-01T01:12:01.243Z,4.47
2016-12-01T01:13:01.229Z,4.47
2016-12-01T01:14:01.510Z,4.47
2016-12-01T01:15:01.496Z,4.47
2016-12-01T01:16:01.158Z,4.51
2016-12-01T01:17:01.138Z,4.52
2016-12-01T01:18:01.121Z,4.51
2016-12-01T01:19:01.131Z,4.46
2016-12-01T01:20:01.081Z,4.55
2016-12-01T01:21:01.068Z,4.54
2016-12-01T01:22:01.043Z,4.51
2016-12-01T01:23:01.017Z,4.54
2016-12-01T01:24:01.005Z,4.51
2016-12-01T01:25:00.984Z,4.51
2016-12-01T01:26:00.958Z,4.5
2016-12-01T01:27:00.940Z,4.52
2016-12-01T01:28:00.921Z,4.58
2016-12-01T01:29:01.213Z,4.57
2016-12-01T01:30:00.881Z,4.51
2016-12-01T01:31:01.171Z,4.54
2016-12-01T01:32:00.838Z,4.57
2016-12-01T01:33:00.821Z,4.54
2016-12-01T01:34:01.114Z,4.55
2016-12-01T01:35:00.781Z,4.59
2016-12-01T01:36:00.759Z,4.54
2016-12-01T01:37:00.742Z,4.54
2016-12-01T01:38:00.719Z,4.52
2016-12-01T01:39:00.700Z,4.55
2016-12-01T01:40:00.690Z,4.54
2016-12-01T01:41:00.666Z,4.57
2016-12-01T01:42:00.645Z,4.55
2016-12-01T01:43:00.625Z,4.47
2016-12-01T01:44:00.602Z,4.51
2016-12-01T01:45:00.592Z,4.57
2016-12-01T01:46:00.564Z,4.59
2016-12-01T01:47:00.540Z,4.47
2016-12-01T01:48:00.833Z,4.59
2016-12-01T01:49:00.504Z,4.46
2016-12-01T01:50:00.481Z,4.57
2016-12-01T01:51:00.468Z,4.54
2016-12-01T01:52:00.441Z,4.57
2016-12-01T01:53:01.045Z,4.57
2016-12-01T01:54:00.401Z,4.54
2016-12-01T01:55:00.383Z,4.47
2016-12-01T01:56:00.362Z,4.57
2016-12-01T01:57:00.344Z,4.52
2016-12-01T01:58:00.525Z,4.57
2016-12-01T01:59:00.638Z,4.54
2016-12-01T02:00:00.283Z,4.57
2016-12-01T02:01:00.272Z,4.58
2016-12-01T02:02:00.247Z,4.58
2016-12-01T02:03:00.224Z,4.47
2016-12-01T02:04:00.206Z,4.54
2016-12-01T02:05:00.185Z,4.51
2016-12-01T02:06:00.162Z,4.57
2016-12-01T02:07:00.143Z,4.57
2016-12-01T02:08:00.124Z,4.55
2016-12-01T02:09:00.106Z,4.57
2016-12-01T02:10:00.082Z,4.46
2016-12-01T02:11:00.064Z,4.51
2016-12-01T02:12:00.045Z,4.55
2016-12-01T02:13:00.026Z,4.55
2016-12-01T02:14:00.318Z,4.51
2016-12-01T02:15:00.301Z,4.5
2016-12-01T02:15:59.963Z,4.5
2016-12-01T02:16:59.944Z,4.47
2016-12-01T02:18:00.243Z,4.5
2016-12-01T02:19:00.221Z,4.46
2016-12-01T02:19:59.886Z,4.52
2016-12-01T02:20:59.866Z,4.46
2016-12-01T02:21:59.844Z,4.5
2016-12-01T02:22:59.826Z,4.51
2016-12-01T02:23:59.808Z,4.5
2016-12-01T02:24:59.784Z,4.51
2016-12-01T02:26:00.078Z,4.55
2016-12-01T02:26:59.743Z,4.47
2016-12-01T02:27:59.732Z,4.5
2016-12-01T02:28:59.702Z,4.5
2016-12-01T02:29:59.692Z,4.47
2016-12-01T02:30:59.668Z,4.46
2016-12-01T02:31:59.647Z,4.46
2016-12-01T02:32:59.629Z,4.59
2016-12-01T02:33:59.611Z,4.47
2016-12-01T02:34:59.589Z,4.51
2016-12-01T02:35:59.575Z,4.5
2016-12-01T02:36:59.545Z,4.46
2016-12-01T02:37:59.530Z,4.52
2016-12-01T02:38:59.825Z,4.52
2016-12-01T02:39:59.494Z,4.59
2016-12-01T02:40:59.472Z,4.51
2016-12-01T02:41:59.454Z,4.52
2016-12-01T02:42:59.747Z,4.54
2016-12-01T02:43:59.413Z,4.55
2016-12-01T02:44:59.397Z,4.52
2016-12-01T02:45:59.374Z,4.52
2016-12-01T02:46:59.352Z,4.55
2016-12-01T02:47:59.332Z,4.52
2016-12-01T02:48:59.310Z,4.59
2016-12-01T02:49:59.300Z,4.57
2016-12-01T02:50:59.275Z,4.54
2016-12-01T02:51:59.251Z,4.52
2016-12-01T02:52:59.237Z,4.61
2016-12-01T02:53:59.217Z,4.59
2016-12-01T02:54:59.193Z,4.55
2016-12-01T02:55:59.172Z,4.55
2016-12-01T02:56:59.155Z,4.59
2016-12-01T02:57:59.136Z,4.57
2016-12-01T02:58:59.117Z,4.62
2016-12-01T02:59:59.095Z,4.52
2016-12-01T03:00:59.078Z,4.51
2016-12-01T03:01:59.057Z,4.51
2016-12-01T03:02:59.349Z,4.54
2016-12-01T03:03:59.019Z,4.55
2016-12-01T03:04:58.998Z,4.47
2016-12-01T03:05:58.977Z,4.57
2016-12-01T03:06:58.959Z,4.57
2016-12-01T03:07:58.939Z,4.59
2016-12-01T03:08:58.950Z,4.58
2016-12-01T03:09:59.209Z,4.59
2016-12-01T03:10:58.878Z,4.54
2016-12-01T03:11:58.866Z,4.52
2016-12-01T03:12:58.844Z,4.47
2016-12-01T03:13:58.825Z,4.54
2016-12-01T03:14:58.798Z,4.5
2016-12-01T03:15:58.780Z,4.54
2016-12-01T03:16:58.767Z,4.57
2016-12-01T03:17:58.746Z,4.5
2016-12-01T03:18:58.724Z,4.52
2016-12-01T03:19:58.701Z,4.57
2016-12-01T03:20:58.688Z,4.52
2016-12-01T03:21:59.294Z,4.57
2016-12-01T03:22:58.643Z,4.57
2016-12-01T03:23:58.937Z,4.51
2016-12-01T03:24:58.915Z,4.55
2016-12-01T03:25:58.897Z,4.52
2016-12-01T03:26:58.567Z,4.58
2016-12-01T03:27:58.546Z,4.57
2016-12-01T03:28:58.527Z,4.5
2016-12-01T03:29:58.508Z,4.58
2016-12-01T03:30:58.486Z,4.57
2016-12-01T03:31:58.472Z,4.54
2016-12-01T03:32:58.758Z,4.58
2016-12-01T03:33:58.437Z,4.52
2016-12-01T03:34:58.404Z,4.57
2016-12-01T03:35:58.714Z,4.55
2016-12-01T03:36:58.694Z,4.58
2016-12-01T03:37:58.357Z,4.57
2016-12-01T03:38:58.651Z,4.59
2016-12-01T03:39:58.303Z,4.62
2016-12-01T03:40:58.288Z,4.58
2016-12-01T03:41:58.577Z,4.61
2016-12-01T03:42:58.253Z,4.58
2016-12-01T03:43:58.224Z,4.65
2016-12-01T03:44:58.206Z,4.59
2016-12-01T03:45:58.225Z,4.59
2016-12-01T03:46:58.479Z,4.61
2016-12-01T03:47:58.158Z,4.62
2016-12-01T03:48:58.436Z,4.62
2016-12-01T03:49:58.108Z,4.57
2016-12-01T03:50:58.086Z,4.62
2016-12-01T03:51:58.378Z,4.61
2016-12-01T03:52:58.363Z,4.57
2016-12-01T03:53:58.027Z,4.57
2016-12-01T03:54:58.002Z,4.57
2016-12-01T03:55:57.987Z,4.58
2016-12-01T03:56:57.964Z,4.61
2016-12-01T03:57:58.152Z,4.65
2016-12-01T03:58:57.930Z,4.67
2016-12-01T03:59:57.942Z,4.69
2016-12-01T04:00:58.204Z,4.65
2016-12-01T04:01:57.877Z,4.61
2016-12-01T04:02:57.852Z,4.69
2016-12-01T04:03:57.825Z,4.62
2016-12-01T04:04:58.150Z,4.69
2016-12-01T04:05:57.783Z,4.69
2016-12-01T04:06:57.767Z,4.64
2016-12-01T04:07:57.751Z,4.59
2016-12-01T04:08:57.722Z,4.75
2016-12-01T04:09:57.717Z,4.67
2016-12-01T04:10:57.689Z,4.7
2016-12-01T04:11:57.665Z,4.69
2016-12-01T04:12:57.644Z,4.7
2016-12-01T04:13:57.631Z,4.65
2016-12-01T04:14:57.607Z,4.7
2016-12-01T04:15:57.590Z,4.7
2016-12-01T04:16:57.567Z,4.64
2016-12-01T04:17:57.546Z,4.73
2016-12-01T04:18:57.528Z,4.73
2016-12-01T04:19:57.518Z,4.73
2016-12-01T04:20:57.798Z,4.59
2016-12-01T04:21:57.471Z,4.75
2016-12-01T04:22:57.448Z,4.79
2016-12-01T04:23:57.744Z,4.67
2016-12-01T04:24:57.407Z,4.79
2016-12-01T04:25:57.394Z,4.67
2016-12-01T04:26:57.367Z,4.76
2016-12-01T04:27:57.347Z,4.76
2016-12-01T04:28:57.336Z,4.72
2016-12-01T04:29:57.310Z,4.64
2016-12-01T04:30:57.288Z,4.75
2016-12-01T04:31:57.578Z,4.69
2016-12-01T04:32:57.275Z,4.69
2016-12-01T04:33:57.240Z,4.77
2016-12-01T04:34:57.203Z,4.76
2016-12-01T04:35:57.189Z,4.73
2016-12-01T04:36:57.171Z,4.76
2016-12-01T04:37:57.464Z,4.76
2016-12-01T04:38:57.130Z,4.89
2016-12-01T04:39:57.107Z,4.79
2016-12-01T04:40:57.087Z,4.84
2016-12-01T04:41:57.071Z,4.72
2016-12-01T04:42:57.053Z,4.8
2016-12-01T04:43:57.029Z,4.83
2016-12-01T04:44:57.011Z,4.86
2016-12-01T04:45:57.302Z,4.76
2016-12-01T04:46:56.970Z,4.88
2016-12-01T04:47:57.263Z,4.77
2016-12-01T04:48:57.242Z,4.76
2016-12-01T04:49:56.906Z,4.75
2016-12-01T04:50:56.893Z,4.8
2016-12-01T04:51:56.869Z,4.79
2016-12-01T04:52:56.847Z,4.84
2016-12-01T04:53:56.830Z,4.73
2016-12-01T04:54:56.807Z,4.83
2016-12-01T04:55:56.795Z,4.86
2016-12-01T04:56:56.774Z,4.75
2016-12-01T04:57:56.750Z,4.88
2016-12-01T04:58:56.725Z,4.91
2016-12-01T04:59:57.048Z,4.88
2016-12-01T05:00:56.689Z,4.79
2016-12-01T05:01:56.671Z,4.83
2016-12-01T05:02:56.649Z,4.86
2016-12-01T05:03:56.949Z,4.76
2016-12-01T05:04:56.613Z,4.91
2016-12-01T05:05:56.594Z,4.84
2016-12-01T05:06:56.571Z,4.88
2016-12-01T05:07:56.555Z,4.8
2016-12-01T05:08:56.860Z,4.84
2016-12-01T05:09:56.516Z,4.89
2016-12-01T05:10:56.495Z,4.84
2016-12-01T05:11:56.510Z,4.88
2016-12-01T05:12:56.768Z,4.83
2016-12-01T05:13:56.433Z,4.83
2016-12-01T05:14:56.413Z,4.92
2016-12-01T05:15:56.709Z,4.88
2016-12-01T05:16:56.380Z,4.88
2016-12-01T05:17:56.363Z,4.94
2016-12-01T05:18:56.332Z,4.89
2016-12-01T05:19:56.314Z,4.86
2016-12-01T05:20:56.296Z,4.86
2016-12-01T05:21:56.587Z,4.83
2016-12-01T05:22:56.257Z,4.84
2016-12-01T05:23:56.241Z,4.79
2016-12-01T05:24:56.215Z,4.84
2016-12-01T05:25:56.200Z,4.79
2016-12-01T05:26:56.173Z,4.89
2016-12-01T05:27:56.161Z,4.8
2016-12-01T05:28:56.137Z,4.79
2016-12-01T05:29:56.116Z,4.86
2016-12-01T05:30:56.098Z,4.88
2016-12-01T05:31:56.076Z,4.76
2016-12-01T05:32:56.372Z,4.86
2016-12-01T05:33:56.042Z,4.8
2016-12-01T05:34:56.018Z,4.89
2016-12-01T05:35:56.036Z,4.83
2016-12-01T05:36:56.294Z,4.76
2016-12-01T05:37:55.958Z,4.8
2016-12-01T05:38:55.945Z,4.79
2016-12-01T05:39:55.919Z,4.88
2016-12-01T05:40:56.218Z,4.86
2016-12-01T05:41:56.194Z,4.92
2016-12-01T05:42:55.865Z,4.86
2016-12-01T05:43:55.844Z,4.91
2016-12-01T05:44:55.877Z,4.89
2016-12-01T05:45:55.815Z,4.92
2016-12-01T05:46:56.460Z,4.94
2016-12-01T05:47:56.353Z,4.96
2016-12-01T05:48:56.094Z,4.92
2016-12-01T05:49:55.732Z,4.96
2016-12-01T05:50:56.022Z,5.01
2016-12-01T05:51:55.999Z,4.95
2016-12-01T05:52:55.669Z,4.99
2016-12-01T05:53:55.646Z,5.04
2016-12-01T05:54:55.626Z,4.96
2016-12-01T05:55:55.613Z,5.05
2016-12-01T05:56:55.590Z,4.98
2016-12-01T05:57:55.776Z,5.05
2016-12-01T05:58:55.569Z,5.02
2016-12-01T05:59:55.527Z,5.05
2016-12-01T06:00:55.565Z,5.05
2016-12-01T06:01:55.488Z,4.98
2016-12-01T06:02:55.469Z,5.07
2016-12-01T06:03:55.452Z,5.02
2016-12-01T06:04:55.431Z,5.04
2016-12-01T06:05:55.414Z,4.98
2016-12-01T06:06:55.387Z,5.05
2016-12-01T06:07:55.374Z,5.07
2016-12-01T06:08:56.469Z,5.1
2016-12-01T06:09:55.355Z,5.12
2016-12-01T06:10:55.319Z,5.09
2016-12-01T06:11:55.300Z,5.07
2016-12-01T06:12:55.280Z,5.07
2016-12-01T06:13:55.564Z,4.96
2016-12-01T06:14:55.240Z,5.04
2016-12-01T06:15:55.550Z,5.01
2016-12-01T06:16:55.194Z,5.02
2016-12-01T06:17:55.495Z,5.04
2016-12-01T06:18:55.463Z,5.07
2016-12-01T06:19:55.137Z,5.07
2016-12-01T06:20:55.118Z,5.05
2016-12-01T06:21:55.477Z,5.01
2016-12-01T06:22:55.420Z,5.09
2016-12-01T06:23:55.062Z,5.09
2016-12-01T06:24:55.040Z,5.04
2016-12-01T06:25:55.024Z,5.09
2016-12-01T06:26:54.994Z,5.02
2016-12-01T06:27:54.976Z,5.02
2016-12-01T06:28:54.958Z,5.01
2016-12-01T06:29:55.250Z,5.05
2016-12-01T06:30:54.918Z,4.95
2016-12-01T06:31:55.214Z,4.99
2016-12-01T06:32:54.878Z,4.94
2016-12-01T06:33:55.172Z,4.99
2016-12-01T06:34:54.839Z,4.94
2016-12-01T06:35:54.820Z,5.09
2016-12-01T06:36:55.107Z,5.05
2016-12-01T06:37:54.779Z,4.98
2016-12-01T06:38:54.758Z,5.05
2016-12-01T06:39:54.740Z,4.94
2016-12-01T06:40:54.716Z,4.99
2016-12-01T06:41:54.702Z,5.02
2016-12-01T06:42:54.679Z,5.05
2016-12-01T06:43:54.662Z,5.05
2016-12-01T06:44:54.641Z,5.02
2016-12-01T06:45:54.621Z,4.96
2016-12-01T06:46:54.605Z,4.92
2016-12-01T06:47:54.632Z,4.94
2016-12-01T06:48:54.565Z,4.98
2016-12-01T06:49:55.165Z,4.95
2016-12-01T06:50:54.524Z,4.91
2016-12-01T06:51:54.511Z,4.88
2016-12-01T06:52:54.493Z,4.86
2016-12-01T06:53:54.826Z,4.84
2016-12-01T06:54:54.443Z,4.88
2016-12-01T06:55:54.431Z,4.88
2016-12-01T06:56:55.272Z,4.92
2016-12-01T06:57:54.712Z,4.89
2016-12-01T06:58:54.386Z,4.94
2016-12-01T06:59:54.660Z,4.88
2016-12-01T07:00:54.327Z,4.94
2016-12-01T07:01:54.622Z,4.94
2016-12-01T07:02:54.289Z,4.95
2016-12-01T07:03:54.576Z,5.02
2016-12-01T07:04:54.245Z,5.01
2016-12-01T07:05:54.232Z,4.95
2016-12-01T07:06:54.208Z,5.02
2016-12-01T07:07:54.507Z,4.99
2016-12-01T07:08:54.173Z,5.04
2016-12-01T07:09:54.156Z,4.96
2016-12-01T07:10:54.442Z,4.99
2016-12-01T07:11:54.113Z,4.96
2016-12-01T07:12:54.089Z,5.02
2016-12-01T07:13:54.382Z,4.98
2016-12-01T07:14:54.078Z,5.04
2016-12-01T07:15:54.033Z,4.95
2016-12-01T07:16:54.011Z,4.91
2016-12-01T07:17:53.993Z,4.94
2016-12-01T07:18:54.022Z,4.94
2016-12-01T07:19:53.953Z,4.91
2016-12-01T07:20:53.932Z,4.92
2016-12-01T07:21:53.915Z,4.96
2016-12-01T07:22:54.206Z,4.98
2016-12-01T07:23:53.873Z,4.84
2016-12-01T07:24:53.879Z,4.99
2016-12-01T07:25:53.843Z,4.92
2016-12-01T07:26:53.815Z,4.99
2016-12-01T07:27:53.793Z,4.88
2016-12-01T07:28:54.088Z,4.92
2016-12-01T07:29:53.761Z,4.95
2016-12-01T07:30:53.736Z,4.91
2016-12-01T07:31:53.748Z,4.91
2016-12-01T07:32:53.746Z,4.88
2016-12-01T07:33:53.684Z,4.92
2016-12-01T07:34:53.662Z,4.83
2016-12-01T07:35:53.952Z,4.89
2016-12-01T07:36:53.624Z,4.86
2016-12-01T07:37:53.603Z,4.88
2016-12-01T07:38:53.597Z,4.91
2016-12-01T07:39:53.561Z,4.91
2016-12-01T07:40:53.544Z,4.94
2016-12-01T07:41:53.524Z,4.96
2016-12-01T07:42:53.505Z,4.92
2016-12-01T07:43:53.478Z,4.95
2016-12-01T07:44:53.460Z,4.91
2016-12-01T07:45:53.756Z,4.89
2016-12-01T07:46:53.426Z,5.01
2016-12-01T07:47:53.405Z,4.96
2016-12-01T07:48:53.389Z,4.99
2016-12-01T07:49:53.363Z,4.98
2016-12-01T07:50:53.348Z,4.96
2016-12-01T07:51:53.642Z,4.98
2016-12-01T07:52:53.301Z,4.99
2016-12-01T07:53:53.599Z,5.05
2016-12-01T07:54:53.267Z,4.94
2016-12-01T07:55:53.241Z,5.05
2016-12-01T07:56:53.539Z,5.04
2016-12-01T07:57:53.449Z,5.04
2016-12-01T07:58:53.188Z,5.07
2016-12-01T07:59:53.161Z,5.05
2016-12-01T08:00:53.174Z,5.04
2016-12-01T08:01:53.125Z,5.07
2016-12-01T08:02:53.422Z,5.05
2016-12-01T08:03:53.087Z,5.09
2016-12-01T08:04:53.064Z,5.05
2016-12-01T08:05:53.360Z,5.05
2016-12-01T08:06:53.031Z,5.1
2016-12-01T08:07:53.212Z,5.07
2016-12-01T08:08:52.993Z,5.09
2016-12-01T08:09:52.969Z,5.1
2016-12-01T08:10:52.955Z,5.12
2016-12-01T08:11:52.926Z,5.13
2016-12-01T08:12:52.912Z,5.12
2016-12-01T08:13:52.895Z,5.07
2016-12-01T08:14:52.868Z,5.16
2016-12-01T08:15:52.847Z,5.07
2016-12-01T08:16:52.834Z,5.04
2016-12-01T08:17:52.815Z,5.13
2016-12-01T08:18:52.789Z,5.12
2016-12-01T08:19:53.087Z,5.13
2016-12-01T08:20:52.748Z,5.14
2016-12-01T08:21:52.733Z,5.14
2016-12-01T08:22:53.027Z,5.16
2016-12-01T08:23:53.002Z,5.14
2016-12-01T08:24:52.688Z,5.16
2016-12-01T08:25:53.303Z,5.16
2016-12-01T08:26:52.641Z,5.19
2016-12-01T08:27:52.624Z,5.22
2016-12-01T08:28:52.594Z,5.12
2016-12-01T08:29:52.893Z,5.17
2016-12-01T08:30:52.554Z,5.19
2016-12-01T08:31:52.538Z,5.25
2016-12-01T08:32:52.517Z,5.23
2016-12-01T08:33:52.500Z,5.23
2016-12-01T08:34:52.801Z,5.2
2016-12-01T08:35:52.553Z,5.25
2016-12-01T08:36:52.754Z,5.2
2016-12-01T08:37:52.465Z,5.25
2016-12-01T08:38:52.399Z,5.32
2016-12-01T08:39:52.378Z,5.35
2016-12-01T08:40:52.410Z,5.37
2016-12-01T08:41:52.344Z,5.27
2016-12-01T08:42:52.317Z,5.37
2016-12-01T08:43:52.321Z,5.34
2016-12-01T08:44:52.276Z,5.32
2016-12-01T08:45:52.266Z,5.38
2016-12-01T08:46:52.550Z,5.38
2016-12-01T08:47:52.220Z,5.34
2016-12-01T08:48:52.199Z,5.43
2016-12-01T08:49:52.499Z,5.45
2016-12-01T08:50:52.214Z,5.46
2016-12-01T08:51:52.146Z,5.45
2016-12-01T08:52:52.123Z,5.45
2016-12-01T08:53:52.105Z,5.45
2016-12-01T08:54:52.081Z,5.5
2016-12-01T08:55:52.070Z,5.48
2016-12-01T08:56:52.045Z,5.48
2016-12-01T08:57:52.347Z,5.46
2016-12-01T08:58:52.006Z,5.4
2016-12-01T08:59:51.992Z,5.52
2016-12-01T09:00:51.975Z,5.5
2016-12-01T09:01:51.951Z,5.49
2016-12-01T09:02:51.928Z,5.48
2016-12-01T09:03:51.910Z,5.49
2016-12-01T09:04:51.889Z,5.63
2016-12-01T09:05:51.873Z,5.57
2016-12-01T09:06:51.854Z,5.56
2016-12-01T09:07:51.835Z,5.63
2016-12-01T09:08:51.815Z,5.53
2016-12-01T09:09:51.794Z,5.56
2016-12-01T09:10:51.777Z,5.68
2016-12-01T09:11:52.071Z,5.68
2016-12-01T09:12:51.740Z,5.68
2016-12-01T09:13:51.720Z,5.71
2016-12-01T09:14:51.704Z,5.68
2016-12-01T09:15:51.679Z,5.68
2016-12-01T09:16:51.663Z,5.71
2016-12-01T09:17:51.642Z,5.75
2016-12-01T09:18:51.627Z,5.77
2016-12-01T09:19:51.609Z,5.74
2016-12-01T09:20:51.613Z,5.75
2016-12-01T09:21:51.564Z,5.75
2016-12-01T09:22:51.553Z,5.73
2016-12-01T09:23:51.531Z,5.77
2016-12-01T09:24:51.508Z,5.74
2016-12-01T09:25:51.804Z,5.78
2016-12-01T09:26:51.468Z,5.78
2016-12-01T09:27:51.453Z,5.78
2016-12-01T09:28:52.060Z,5.77
2016-12-01T09:29:51.415Z,5.83
2016-12-01T09:30:51.397Z,5.78
2016-12-01T09:31:51.379Z,5.91
2016-12-01T09:32:51.369Z,5.75
2016-12-01T09:33:51.339Z,5.86
2016-12-01T09:34:51.322Z,5.85
2016-12-01T09:35:51.298Z,5.74
2016-12-01T09:36:51.281Z,5.82
2016-12-01T09:37:51.259Z,5.86
2016-12-01T09:38:51.245Z,5.83
2016-12-01T09:39:51.225Z,5.83
2016-12-01T09:40:51.208Z,5.83
2016-12-01T09:41:51.196Z,5.83
2016-12-01T09:42:51.171Z,5.83
2016-12-01T09:43:51.468Z,5.83
2016-12-01T09:44:51.447Z,5.77
2016-12-01T09:45:51.110Z,5.88
2016-12-01T09:46:51.099Z,5.85
2016-12-01T09:47:51.081Z,5.83
2016-12-01T09:48:51.366Z,5.86
2016-12-01T09:49:51.037Z,5.89
2016-12-01T09:50:51.018Z,5.93
2016-12-01T09:51:51.050Z,5.95
2016-12-01T09:52:50.979Z,5.82
2016-12-01T09:53:50.960Z,5.83
2016-12-01T09:54:51.259Z,5.88
2016-12-01T09:55:51.241Z,5.86
2016-12-01T09:56:50.903Z,5.96
2016-12-01T09:57:51.100Z,6
2016-12-01T09:58:50.870Z,6.01
2016-12-01T09:59:50.877Z,5.86
2016-12-01T10:00:50.842Z,5.91
2016-12-01T10:01:50.814Z,5.88
2016-12-01T10:02:50.791Z,5.91
2016-12-01T10:03:51.083Z,5.95
2016-12-01T10:04:50.756Z,5.93
2016-12-01T10:05:51.064Z,5.96
2016-12-01T10:06:50.718Z,6
2016-12-01T10:07:51.012Z,6.03
2016-12-01T10:08:50.681Z,5.95
2016-12-01T10:09:50.665Z,6
2016-12-01T10:10:50.647Z,6.03
2016-12-01T10:11:50.625Z,6.03
2016-12-01T10:12:50.609Z,6.01
2016-12-01T10:13:50.587Z,6.09
2016-12-01T10:14:50.883Z,6.06
2016-12-01T10:15:50.563Z,6.1
2016-12-01T10:16:50.533Z,6.07
2016-12-01T10:17:50.515Z,6.11
2016-12-01T10:18:50.495Z,6.09
2016-12-01T10:19:50.476Z,6.14
2016-12-01T10:20:50.460Z,6.14
2016-12-01T10:21:50.444Z,6.11
2016-12-01T10:22:50.420Z,6.14
2016-12-01T10:23:50.402Z,6.1
2016-12-01T10:24:50.382Z,6.14
2016-12-01T10:25:50.367Z,6.11
2016-12-01T10:26:50.350Z,6.14
2016-12-01T10:27:50.382Z,6.09
2016-12-01T10:28:50.317Z,6.11
2016-12-01T10:29:50.289Z,6.1
2016-12-01T10:30:50.275Z,6.11
2016-12-01T10:31:50.254Z,6.14
2016-12-01T10:32:50.549Z,6.14
2016-12-01T10:33:50.531Z,6.03
2016-12-01T10:34:50.247Z,6.07
2016-12-01T10:35:50.179Z,6.11
2016-12-01T10:36:50.160Z,6.16
2016-12-01T10:37:50.148Z,6.18
2016-12-01T10:38:50.125Z,6.14
2016-12-01T10:39:50.111Z,6.18
2016-12-01T10:40:50.089Z,6.25
2016-12-01T10:41:50.070Z,6.14
2016-12-01T10:42:50.053Z,6.28
2016-12-01T10:43:50.037Z,6.22
2016-12-01T10:44:50.014Z,6.18
2016-12-01T10:45:50.003Z,6.25
2016-12-01T10:46:50.321Z,6.21
2016-12-01T10:47:49.957Z,6.26
2016-12-01T10:48:49.944Z,6.29
2016-12-01T10:49:49.922Z,6.25
2016-12-01T10:50:49.905Z,6.29
2016-12-01T10:51:50.197Z,6.3
2016-12-01T10:52:50.175Z,6.29
2016-12-01T10:53:49.846Z,6.32
2016-12-01T10:54:49.832Z,6.29
2016-12-01T10:55:49.815Z,6.29
2016-12-01T10:56:49.792Z,6.32
2016-12-01T10:57:50.093Z,6.3
2016-12-01T10:58:49.756Z,6.36
2016-12-01T10:59:49.775Z,6.29
2016-12-01T11:00:50.035Z,6.35
2016-12-01T11:01:49.706Z,6.33
2016-12-01T11:02:50.000Z,6.3
2016-12-01T11:03:49.673Z,6.28
2016-12-01T11:04:49.965Z,6.26
2016-12-01T11:05:49.630Z,6.32
2016-12-01T11:06:49.613Z,6.29
2016-12-01T11:07:49.591Z,6.29
2016-12-01T11:08:49.574Z,6.32
2016-12-01T11:09:49.560Z,6.33
2016-12-01T11:10:49.537Z,6.32
2016-12-01T11:11:49.522Z,6.32
2016-12-01T11:12:49.511Z,6.33
2016-12-01T11:13:49.480Z,6.3
2016-12-01T11:14:49.468Z,6.32
2016-12-01T11:15:49.447Z,6.36
2016-12-01T11:16:49.427Z,6.43
2016-12-01T11:17:49.408Z,6.33
2016-12-01T11:18:49.394Z,6.44
2016-12-01T11:19:49.376Z,6.5
2016-12-01T11:20:49.354Z,6.38
2016-12-01T11:21:49.339Z,6.38
2016-12-01T11:22:49.629Z,6.47
2016-12-01T11:23:49.298Z,6.51
2016-12-01T11:24:49.285Z,6.48
2016-12-01T11:25:49.575Z,6.51
2016-12-01T11:26:49.251Z,6.48
2016-12-01T11:27:49.540Z,6.54
2016-12-01T11:28:49.205Z,6.51
2016-12-01T11:29:49.503Z,6.48
2016-12-01T11:30:49.484Z,6.48
2016-12-01T11:31:49.152Z,6.51
2016-12-01T11:32:49.137Z,6.53
2016-12-01T11:33:49.434Z,6.47
2016-12-01T11:34:49.096Z,6.5
2016-12-01T11:35:49.397Z,6.53
2016-12-01T11:36:49.061Z,6.54
2016-12-01T11:37:49.366Z,6.58
2016-12-01T11:38:49.033Z,6.53
2016-12-01T11:39:49.321Z,6.5
2016-12-01T11:40:48.995Z,6.48
2016-12-01T11:41:49.286Z,6.54
2016-12-01T11:42:48.957Z,6.48
2016-12-01T11:43:48.937Z,6.47
2016-12-01T11:44:48.919Z,6.48
2016-12-01T11:45:48.900Z,6.46
2016-12-01T11:46:49.193Z,6.51
2016-12-01T11:47:48.867Z,6.54
2016-12-01T11:48:48.845Z,6.56
2016-12-01T11:49:48.829Z,6.59
2016-12-01T11:50:48.809Z,6.54
2016-12-01T11:51:48.799Z,6.54
2016-12-01T11:52:48.772Z,6.5
2016-12-01T11:53:48.753Z,6.58
2016-12-01T11:54:48.734Z,6.61
2016-12-01T11:55:49.347Z,6.61
2016-12-01T11:56:48.700Z,6.65
2016-12-01T11:57:49.087Z,6.62
2016-12-01T11:58:48.664Z,6.56
2016-12-01T11:59:48.651Z,6.59
2016-12-01T12:00:48.943Z,6.56
2016-12-01T12:01:49.236Z,6.58
2016-12-01T12:02:48.593Z,6.58
2016-12-01T12:03:48.575Z,6.65
2016-12-01T12:04:48.556Z,6.61
2016-12-01T12:05:48.543Z,6.59
2016-12-01T12:06:48.531Z,6.63
2016-12-01T12:07:48.500Z,6.58
2016-12-01T12:08:48.480Z,6.58
2016-12-01T12:09:48.783Z,6.61
2016-12-01T12:10:48.445Z,6.58
2016-12-01T12:11:48.429Z,6.59
2016-12-01T12:12:48.723Z,6.58
2016-12-01T12:13:48.390Z,6.56
2016-12-01T12:14:48.372Z,6.61
2016-12-01T12:15:48.674Z,6.62
2016-12-01T12:16:48.336Z,6.61
2016-12-01T12:17:48.636Z,6.62
2016-12-01T12:18:48.301Z,6.71
2016-12-01T12:19:48.293Z,6.79
2016-12-01T12:20:48.267Z,6.69
2016-12-01T12:21:48.255Z,6.72
2016-12-01T12:22:48.229Z,6.72
2016-12-01T12:23:48.210Z,6.83
2016-12-01T12:24:48.204Z,6.76
2016-12-01T12:25:48.520Z,6.81
2016-12-01T12:26:48.159Z,6.86
2016-12-01T12:27:48.146Z,6.81
2016-12-01T12:28:48.123Z,6.89
2016-12-01T12:29:48.107Z,6.89
2016-12-01T12:30:48.086Z,6.87
2016-12-01T12:31:48.073Z,6.91
2016-12-01T12:32:48.366Z,6.9
2016-12-01T12:33:48.031Z,6.94
2016-12-01T12:34:48.020Z,6.91
2016-12-01T12:35:49.201Z,6.94
2016-12-01T12:36:48.412Z,6.91
2016-12-01T12:37:47.974Z,7.02
2016-12-01T12:38:47.945Z,7.04
2016-12-01T12:39:47.927Z,7.02
2016-12-01T12:40:47.908Z,6.98
2016-12-01T12:41:47.892Z,6.94
2016-12-01T12:42:47.873Z,6.99
2016-12-01T12:43:48.164Z,6.97
2016-12-01T12:44:47.840Z,7.02
2016-12-01T12:45:47.821Z,6.97
2016-12-01T12:46:47.799Z,6.99
2016-12-01T12:47:48.098Z,6.98
2016-12-01T12:48:47.765Z,7.04
2016-12-01T12:49:47.745Z,6.95
2016-12-01T12:50:47.730Z,7.01
2016-12-01T12:51:47.713Z,6.97
2016-12-01T12:52:47.693Z,6.95
2016-12-01T12:53:47.675Z,7.04
2016-12-01T12:54:47.658Z,6.86
2016-12-01T12:55:47.639Z,6.95
2016-12-01T12:56:47.931Z,6.98
2016-12-01T12:57:47.602Z,6.95
2016-12-01T12:58:47.582Z,6.97
2016-12-01T12:59:47.567Z,6.91
2016-12-01T13:00:47.549Z,6.94
2016-12-01T13:01:47.529Z,7.05
2016-12-01T13:02:47.829Z,6.94
2016-12-01T13:03:47.811Z,6.95
2016-12-01T13:04:47.472Z,6.9
2016-12-01T13:05:47.459Z,6.95
2016-12-01T13:06:47.750Z,7.02
2016-12-01T13:07:47.436Z,6.97
2016-12-01T13:08:47.414Z,6.98
2016-12-01T13:09:47.702Z,6.98
2016-12-01T13:10:47.371Z,7.01
2016-12-01T13:11:47.344Z,6.94
2016-12-01T13:12:47.334Z,7.02
2016-12-01T13:13:47.623Z,6.98
2016-12-01T13:14:47.605Z,6.97
2016-12-01T13:15:47.281Z,6.94
2016-12-01T13:16:47.570Z,7.02
2016-12-01T13:17:47.238Z,6.97
2016-12-01T13:18:47.228Z,6.97
2016-12-01T13:19:47.208Z,6.95